Time;durP1;ratioP1;P1;durP2;ratioP2;P2;SDS_P1;SDS_P2;PMS_P1;PMS_P2;Temp;Humidity;BMP_temperature;BMP_pressure;BME280_temperature;BME280_humidity;BME280_pressure;Samples;Min_cycle;Max_cycle;Signal;HPM_P1;HPM_P2
2023/05/01 00:00:30;;;;;;;;;;;;;;;19.40;60.36;100807.09;7395779;19;1465;-49
2023/05/01 00:02:59;;;;;;;;;;;;;;;19.35;60.64;100796.75;7395062;19;1854;-47
2023/05/01 00:05:30;;;;;;;;;;;;;;;19.40;60.62;100807.09;7398294;19;1862;-49
2023/05/01 00:07:58;;;;;;;;;;;;;;;19.48;60.29;100794.69;7402520;19;1838;-48
2023/05/01 00:10:27;;;;;;;;;;;;;;;19.49;60.51;100790.16;7402744;19;1747;-48
2023/05/01 00:12:55;;;;;;;;;;;;;;;19.57;60.22;100803.72;7402849;19;1806;-49
2023/05/01 00:15:24;;;;;;;;;;;;;;;19.54;60.20;100797.81;7402261;19;1727;-48
2023/05/01 00:17:54;;;;;;;;;;;;;;;19.50;60.29;100815.13;7403162;19;1738;-48
2023/05/01 00:20:27;;;;;;;;;;;;;;;19.51;60.13;100816.84;7402454;19;1782;-48
2023/05/01 00:22:59;;;;;;;;;;;;;;;19.48;60.34;100807.25;7401305;19;1853;-47
2023/05/01 00:25:27;;;;;;;;;;;;;;;19.43;60.50;100817.53;7403307;19;1043;-48
2023/05/01 00:27:56;;;;;;;;;;;;;;;19.41;60.37;100825.69;7398351;19;1226;-48
2023/05/01 00:30:27;;;;;;;;;;;;;;;19.37;61.03;100818.91;7400323;19;1750;-47
2023/05/01 00:32:55;;;;;;;;;;;;;;;19.35;60.74;100812.00;7402331;19;1142;-48
2023/05/01 00:35:24;;;;;;;;;;;;;;;19.44;60.46;100800.47;7401490;19;1935;-48
2023/05/01 00:37:52;;;;;;;;;;;;;;;19.52;60.48;100822.06;7401920;19;1734;-48
2023/05/01 00:40:23;;;;;;;;;;;;;;;19.53;60.54;100807.66;7402950;19;1730;-48
2023/05/01 00:42:51;;;;;;;;;;;;;;;19.50;60.67;100812.44;7400702;19;1848;-48
2023/05/01 00:45:20;;;;;;;;;;;;;;;19.55;60.85;100826.31;7403262;19;1035;-49
2023/05/01 00:47:48;;;;;;;;;;;;;;;19.53;60.56;100818.38;7402055;19;1607;-47
2023/05/01 00:50:17;;;;;;;;;;;;;;;19.59;60.96;100827.72;7402070;19;1990;-48
2023/05/01 00:52:45;;;;;;;;;;;;;;;19.47;61.34;100802.84;7399231;19;1940;-48
2023/05/01 00:55:13;;;;;;;;;;;;;;;19.38;61.45;100815.25;7402021;19;1719;-48
2023/05/01 00:57:44;;;;;;;;;;;;;;;19.46;61.46;100836.03;7401340;19;1810;-49
2023/05/01 01:00:15;;;;;;;;;;;;;;;19.54;61.20;100819.25;7401479;19;1754;-48
2023/05/01 01:02:43;;;;;;;;;;;;;;;19.55;61.21;100826.31;7399952;19;1853;-48
2023/05/01 01:05:12;;;;;;;;;;;;;;;19.32;61.85;100841.75;7400203;19;1964;-47
2023/05/01 01:07:43;;;;;;;;;;;;;;;19.40;61.64;100845.47;7401175;19;1418;-47
2023/05/01 01:10:17;;;;;;;;;;;;;;;19.54;61.41;100851.44;7401533;19;1805;-48
2023/05/01 01:12:55;;;;;;;;;;;;;;;19.45;61.68;100837.84;7403119;19;1023;-48
2023/05/01 01:15:28;;;;;;;;;;;;;;;19.33;61.72;100854.19;7398306;19;1878;-48
2023/05/01 01:18:01;;;;;;;;;;;;;;;19.46;61.56;100863.69;7398916;19;1449;-47
2023/05/01 01:20:33;;;;;;;;;;;;;;;19.51;61.26;100855.22;7401747;19;1801;-48
2023/05/01 01:23:19;;;;;;;;;;;;;;;19.48;61.43;100858.22;7398810;19;1837;-49
2023/05/01 01:26:03;;;;;;;;;;;;;;;19.37;61.72;100851.09;7398676;19;1871;-47
2023/05/01 01:28:57;;;;;;;;;;;;;;;19.42;61.36;100848.03;7398686;19;1533;-47
2023/05/01 01:31:31;;;;;;;;;;;;;;;19.31;62.10;100854.31;7399023;19;1699;-48
2023/05/01 01:34:10;;;;;;;;;;;;;;;19.37;61.75;100856.47;7397704;19;1829;-48
2023/05/01 01:36:42;;;;;;;;;;;;;;;19.47;61.31;100867.22;7400566;19;1107;-48
2023/05/01 01:39:13;;;;;;;;;;;;;;;19.49;61.30;100870.63;7400056;19;1862;-48
2023/05/01 01:41:42;;;;;;;;;;;;;;;19.48;61.10;100869.78;7398597;19;1735;-48
2023/05/01 01:44:14;;;;;;;;;;;;;;;19.16;62.78;100874.44;7397567;19;1845;-49
2023/05/01 01:46:44;;;;;;;;;;;;;;;19.49;62.17;100867.94;7398906;19;1809;-48
2023/05/01 01:49:18;;;;;;;;;;;;;;;20.19;60.38;100859.88;7398565;19;1727;-49
2023/05/01 01:51:47;;;;;;;;;;;;;;;20.59;59.13;100872.34;7398316;19;1692;-48
2023/05/01 01:54:17;;;;;;;;;;;;;;;20.34;59.90;100871.91;7398326;19;1735;-49
2023/05/01 01:56:50;;;;;;;;;;;;;;;20.24;60.25;100877.28;7399339;19;1446;-47
2023/05/01 01:59:19;;;;;;;;;;;;;;;20.42;60.33;100879.25;7399684;19;1560;-48
2023/05/01 02:01:48;;;;;;;;;;;;;;;20.53;59.71;100883.63;7400253;19;1013;-49
2023/05/01 02:04:20;;;;;;;;;;;;;;;20.50;59.84;100884.78;7395377;19;1845;-47
2023/05/01 02:06:49;;;;;;;;;;;;;;;20.56;59.56;100897.63;7399671;19;1546;-48
2023/05/01 02:09:19;;;;;;;;;;;;;;;20.55;59.62;100904.00;7399581;19;1742;-49
2023/05/01 02:11:48;;;;;;;;;;;;;;;20.64;59.72;100907.69;7398562;19;1734;-48
2023/05/01 02:14:17;;;;;;;;;;;;;;;20.63;59.59;100903.31;7400042;19;1067;-48
2023/05/01 02:16:46;;;;;;;;;;;;;;;20.58;59.81;100922.50;7399218;19;1944;-48
2023/05/01 02:19:16;;;;;;;;;;;;;;;20.58;59.82;100917.13;7399272;19;1790;-48
2023/05/01 02:21:47;;;;;;;;;;;;;;;20.61;59.67;100906.16;7398724;19;1735;-48
2023/05/01 02:24:16;;;;;;;;;;;;;;;20.60;59.77;100909.81;7396971;19;1852;-48
2023/05/01 02:26:45;;;;;;;;;;;;;;;20.65;59.77;100910.25;7396166;19;1387;-48
2023/05/01 02:29:13;;;;;;;;;;;;;;;20.80;59.47;100893.69;7396724;19;1575;-49
2023/05/01 02:31:42;;;;;;;;;;;;;;;20.80;59.55;100912.50;7397836;19;1138;-48
2023/05/01 02:34:11;;;;;;;;;;;;;;;20.79;59.50;100911.66;7398160;19;1778;-49
2023/05/01 02:36:39;;;;;;;;;;;;;;;20.78;59.34;100909.09;7398540;19;1092;-49
2023/05/01 02:39:10;;;;;;;;;;;;;;;20.80;59.49;100924.09;7397070;19;1924;-48
2023/05/01 02:41:38;;;;;;;;;;;;;;;20.79;59.60;100921.53;7398237;19;1469;-48
2023/05/01 02:44:09;;;;;;;;;;;;;;;20.79;59.61;100925.09;7396192;19;1853;-49
2023/05/01 02:46:38;;;;;;;;;;;;;;;20.79;59.53;100924.22;7397390;19;1727;-48
2023/05/01 02:49:07;;;;;;;;;;;;;;;20.75;59.49;100922.81;7396142;19;1738;-49
2023/05/01 02:51:37;;;;;;;;;;;;;;;20.82;59.39;100929.31;7396436;19;1793;-48
2023/05/01 02:54:05;;;;;;;;;;;;;;;20.79;59.31;100929.59;7398151;19;1716;-49
2023/05/01 02:56:36;;;;;;;;;;;;;;;20.82;59.25;100940.91;7396939;19;1727;-49
2023/05/01 02:59:05;;;;;;;;;;;;;;;20.84;59.31;100938.09;7396875;19;1715;-49
2023/05/01 03:01:33;;;;;;;;;;;;;;;20.86;59.27;100933.41;7396602;19;1041;-50
2023/05/01 03:04:01;;;;;;;;;;;;;;;20.83;59.47;100936.38;7393183;19;1872;-49
2023/05/01 03:06:30;;;;;;;;;;;;;;;20.87;59.44;100937.81;7397567;19;1142;-49
2023/05/01 03:08:58;;;;;;;;;;;;;;;20.87;59.42;100937.81;7396176;19;1901;-50
2023/05/01 03:11:27;;;;;;;;;;;;;;;20.86;59.25;100931.56;7396676;19;1810;-48
2023/05/01 03:13:58;;;;;;;;;;;;;;;20.86;59.27;100938.78;7397472;19;1036;-49
2023/05/01 03:16:26;;;;;;;;;;;;;;;20.92;59.07;100907.81;7396322;19;1608;-48
2023/05/01 03:18:54;;;;;;;;;;;;;;;20.84;59.32;100922.78;7396454;19;1789;-49
2023/05/01 03:21:23;;;;;;;;;;;;;;;20.89;59.18;100934.97;7396678;19;1735;-47
2023/05/01 03:23:51;;;;;;;;;;;;;;;20.94;59.26;100954.19;7395160;19;1870;-49
2023/05/01 03:26:19;;;;;;;;;;;;;;;20.92;59.25;100957.03;7395108;19;1711;-47
2023/05/01 03:28:47;;;;;;;;;;;;;;;20.90;59.42;100942.88;7396563;19;1743;-50
2023/05/01 03:31:18;;;;;;;;;;;;;;;20.89;59.40;100951.97;7394426;19;1385;-49
2023/05/01 03:33:47;;;;;;;;;;;;;;;20.92;59.41;100953.50;7394886;19;1590;-49
2023/05/01 03:36:15;;;;;;;;;;;;;;;20.98;59.33;100959.13;6874098;19;9999765;-50
2023/05/01 03:38:43;;;;;;;;;;;;;;;21.00;59.33;100970.59;7385336;19;1716;-49
2023/05/01 03:41:11;;;;;;;;;;;;;;;20.97;59.39;100961.97;7395868;19;1521;-48
2023/05/01 03:43:40;;;;;;;;;;;;;;;20.97;59.29;100976.28;7394552;19;1880;-49
2023/05/01 03:46:08;;;;;;;;;;;;;;;20.99;59.35;100973.41;7397060;19;1500;-49
2023/05/01 03:48:39;;;;;;;;;;;;;;;21.00;59.34;100980.50;7395463;19;1684;-50
2023/05/01 03:51:07;;;;;;;;;;;;;;;21.01;59.10;100984.91;7395980;19;1607;-49
2023/05/01 03:53:35;;;;;;;;;;;;;;;21.00;59.40;100989.41;7396315;19;1456;-49
2023/05/01 03:56:05;;;;;;;;;;;;;;;21.03;59.31;100975.69;7395626;19;1639;-49
2023/05/01 03:58:33;;;;;;;;;;;;;;;21.05;59.25;100989.84;7397454;19;1532;-49
2023/05/01 04:01:02;;;;;;;;;;;;;;;20.77;60.10;100990.69;7396315;19;1564;-50
2023/05/01 04:03:30;;;;;;;;;;;;;;;20.75;59.89;100987.31;7396020;19;1856;-50
2023/05/01 04:06:02;;;;;;;;;;;;;;;20.81;59.56;100992.13;7395466;19;1822;-50
2023/05/01 04:08:30;;;;;;;;;;;;;;;20.62;59.92;100991.13;6868272;19;10000417;-48
2023/05/01 04:10:58;;;;;;;;;;;;;;;20.41;60.38;100993.94;7335888;19;12628;-49
2023/05/01 04:13:26;;;;;;;;;;;;;;;20.17;61.26;100994.28;7392867;19;1603;-49
2023/05/01 04:15:58;;;;;;;;;;;;;;;20.02;61.44;100985.78;7391270;19;1505;-50
2023/05/01 04:18:26;;;;;;;;;;;;;;;19.94;61.50;100992.81;7395389;19;1528;-48
2023/05/01 04:20:54;;;;;;;;;;;;;;;20.09;61.49;100999.47;7391368;19;1558;-45
2023/05/01 04:23:25;;;;;;;;;;;;;;;20.50;60.16;100999.44;7393517;19;1854;-45
2023/05/01 04:25:53;;;;;;;;;;;;;;;20.56;60.00;101017.69;7393072;19;1471;-49
2023/05/01 04:28:22;;;;;;;;;;;;;;;20.42;60.38;101013.56;7393031;19;1488;-48
2023/05/01 04:30:50;;;;;;;;;;;;;;;20.34;60.75;101013.41;7393670;19;1507;-48
2023/05/01 04:33:18;;;;;;;;;;;;;;;20.37;60.57;101032.78;7394929;19;1548;-48
2023/05/01 04:35:47;;;;;;;;;;;;;;;20.40;60.47;101020.91;7393215;19;1602;-48
2023/05/01 04:38:15;;;;;;;;;;;;;;;20.35;60.49;101023.16;7392211;19;1404;-48
2023/05/01 04:40:46;;;;;;;;;;;;;;;20.62;60.09;101025.22;7393704;19;1467;-47
2023/05/01 04:43:15;;;;;;;;;;;;;;;20.76;59.99;101021.28;7392606;19;1853;-50
2023/05/01 04:45:43;;;;;;;;;;;;;;;20.91;59.44;101022.56;7393345;19;1405;-49
2023/05/01 04:48:11;;;;;;;;;;;;;;;21.20;58.60;101029.75;7391961;19;1395;-49
2023/05/01 04:50:40;;;;;;;;;;;;;;;21.03;58.72;101042.91;7391019;19;1353;-49
2023/05/01 04:53:08;;;;;;;;;;;;;;;21.09;58.73;101032.56;7392310;19;1497;-49
2023/05/01 04:55:37;;;;;;;;;;;;;;;20.99;58.72;101040.63;7393115;19;1531;-48
2023/05/01 04:58:07;;;;;;;;;;;;;;;20.89;59.25;101037.97;7392611;19;1359;-48
2023/05/01 05:00:36;;;;;;;;;;;;;;;20.63;60.15;101043.91;7392338;19;1412;-48
2023/05/01 05:03:04;;;;;;;;;;;;;;;20.27;60.91;101051.56;7392215;19;1851;-48
2023/05/01 05:05:32;;;;;;;;;;;;;;;20.22;61.20;101051.13;7393486;19;1829;-48
2023/05/01 05:08:01;;;;;;;;;;;;;;;20.48;60.47;101042.56;7392130;19;2448;-49
2023/05/01 05:10:30;;;;;;;;;;;;;;;20.42;60.72;101035.06;7393495;19;1559;-48
2023/05/01 05:12:59;;;;;;;;;;;;;;;20.43;60.78;101039.44;7391233;19;1602;-48
2023/05/01 05:15:29;;;;;;;;;;;;;;;20.43;60.44;101026.00;7390940;19;1618;-48
2023/05/01 05:17:58;;;;;;;;;;;;;;;20.36;60.64;101028.41;7393141;19;1540;-48
2023/05/01 05:20:27;;;;;;;;;;;;;;;20.31;61.06;101051.28;7391996;19;1475;-48
2023/05/01 05:22:55;;;;;;;;;;;;;;;20.26;60.98;101036.44;7392698;19;1434;-48
2023/05/01 05:25:23;;;;;;;;;;;;;;;20.05;61.73;101049.06;7393391;19;1860;-48
2023/05/01 05:27:52;;;;;;;;;;;;;;;19.87;61.95;101043.47;7396781;19;1167;-53
2023/05/01 05:30:20;;;;;;;;;;;;;;;19.93;62.21;101045.63;7396434;19;1469;-49
2023/05/01 05:32:51;;;;;;;;;;;;;;;19.80;62.74;101053.06;7399075;19;1442;-49
2023/05/01 05:35:19;;;;;;;;;;;;;;;19.94;62.46;101047.34;7399194;19;1853;-49
2023/05/01 05:37:47;;;;;;;;;;;;;;;20.22;61.84;101067.22;7398943;19;1382;-49
2023/05/01 05:40:16;;;;;;;;;;;;;;;20.30;61.48;101068.41;7397841;19;1439;-49
2023/05/01 05:42:44;;;;;;;;;;;;;;;20.03;62.26;101067.16;7399553;19;1291;-47
2023/05/01 05:45:12;;;;;;;;;;;;;;;20.06;60.99;101083.00;7396093;19;1855;-51
2023/05/01 05:47:41;;;;;;;;;;;;;;;19.84;62.18;101063.41;7392781;19;1423;-48
2023/05/01 05:50:12;;;;;;;;;;;;;;;19.91;62.51;101084.34;7396223;19;1552;-49
2023/05/01 05:52:40;;;;;;;;;;;;;;;19.68;63.30;101087.16;7397713;19;1208;-48
2023/05/01 05:55:09;;;;;;;;;;;;;;;19.75;63.15;101098.22;7398552;19;1488;-49
2023/05/01 05:57:37;;;;;;;;;;;;;;;19.83;62.98;101098.41;7397895;19;1634;-48
2023/05/01 06:00:08;;;;;;;;;;;;;;;19.73;63.31;101103.72;7397830;19;1578;-48
2023/05/01 06:02:36;;;;;;;;;;;;;;;19.84;63.23;101094.75;7396341;19;1270;-47
2023/05/01 06:05:04;;;;;;;;;;;;;;;19.86;63.19;101098.16;7394659;19;1849;-47
2023/05/01 06:07:36;;;;;;;;;;;;;;;20.22;62.51;101096.75;7394467;19;1496;-46
2023/05/01 06:10:05;;;;;;;;;;;;;;;20.28;62.63;101103.44;7395826;19;1433;-47
2023/05/01 06:12:34;;;;;;;;;;;;;;;20.12;62.80;101101.25;7393613;19;1245;-47
2023/05/01 06:15:02;;;;;;;;;;;;;;;20.01;63.48;101130.84;7395585;19;1369;-47
2023/05/01 06:17:31;;;;;;;;;;;;;;;19.97;62.93;101118.69;7393499;19;1571;-46
2023/05/01 06:19:59;;;;;;;;;;;;;;;20.00;63.76;101126.50;7389795;19;1119;-46
2023/05/01 06:22:27;;;;;;;;;;;;;;;20.14;62.96;101128.81;7390968;19;1937;-47
2023/05/01 06:24:58;;;;;;;;;;;;;;;19.96;63.47;101135.78;7392581;19;1857;-46
2023/05/01 06:27:26;;;;;;;;;;;;;;;19.95;63.25;101147.50;7392785;19;1626;-47
2023/05/01 06:29:55;;;;;;;;;;;;;;;19.91;63.92;101157.66;7389304;19;1502;-47
2023/05/01 06:32:23;;;;;;;;;;;;;;;19.83;62.78;101158.31;7395135;19;1164;-47
2023/05/01 06:34:51;;;;;;;;;;;;;;;19.91;62.64;101157.66;7391508;19;1412;-48
2023/05/01 06:37:19;;;;;;;;;;;;;;;20.12;61.84;101165.69;7392338;19;1362;-49
2023/05/01 06:39:49;;;;;;;;;;;;;;;20.23;61.62;101162.94;7389413;19;1813;-48
2023/05/01 06:42:20;;;;;;;;;;;;;;;20.15;61.73;101189.56;7387628;19;1575;-48
2023/05/01 06:44:48;;;;;;;;;;;;;;;20.09;61.85;101174.00;7387149;19;1861;-48
2023/05/01 06:47:16;;;;;;;;;;;;;;;20.08;62.03;101179.53;7388117;19;1214;-48
2023/05/01 06:49:45;;;;;;;;;;;;;;;19.93;62.41;101168.25;7388024;19;1592;-48
2023/05/01 06:52:13;;;;;;;;;;;;;;;19.88;62.25;101159.75;7388108;19;1274;-48
2023/05/01 06:54:41;;;;;;;;;;;;;;;19.89;62.44;101182.94;7392343;19;1584;-48
2023/05/01 06:57:09;;;;;;;;;;;;;;;19.89;62.17;101182.94;7392098;19;1285;-48
2023/05/01 06:59:40;;;;;;;;;;;;;;;20.05;61.68;101192.22;7392766;19;1603;-48
2023/05/01 07:02:09;;;;;;;;;;;;;;;19.96;61.83;101195.69;7390279;19;2095;-48
2023/05/01 07:04:37;;;;;;;;;;;;;;;20.06;61.60;101185.84;7391468;19;1878;-53
2023/05/01 07:07:05;;;;;;;;;;;;;;;20.04;61.29;101184.31;7394155;19;1238;-48
2023/05/01 07:09:34;;;;;;;;;;;;;;;19.95;61.56;101201.19;7391148;19;1238;-49
2023/05/01 07:12:03;;;;;;;;;;;;;;;19.90;61.90;101200.75;7396051;19;1285;-48
2023/05/01 07:14:31;;;;;;;;;;;;;;;19.92;61.83;101199.63;7397571;19;1104;-49
2023/05/01 07:17:02;;;;;;;;;;;;;;;19.90;61.72;101198.06;7404601;19;1496;-49
2023/05/01 07:19:30;;;;;;;;;;;;;;;19.81;61.66;101197.00;7403254;19;1163;-49
2023/05/01 07:21:58;;;;;;;;;;;;;;;19.87;61.56;101212.56;7402797;19;1915;-49
2023/05/01 07:24:27;;;;;;;;;;;;;;;19.84;61.43;101207.47;7402347;19;1860;-49
2023/05/01 07:26:55;;;;;;;;;;;;;;;19.88;61.12;101197.34;7402349;19;1610;-49
2023/05/01 07:29:23;;;;;;;;;;;;;;;19.84;61.43;101213.69;7402308;19;1556;-49
2023/05/01 07:31:51;;;;;;;;;;;;;;;19.82;61.15;101209.44;7402393;19;1103;-49
2023/05/01 07:34:22;;;;;;;;;;;;;;;19.88;61.22;101210.75;7402640;19;1635;-49
2023/05/01 07:36:51;;;;;;;;;;;;;;;20.04;60.49;101208.47;7401728;19;1155;-49
2023/05/01 07:39:19;;;;;;;;;;;;;;;20.05;60.55;101211.03;7401713;19;1204;-49
2023/05/01 07:41:47;;;;;;;;;;;;;;;20.09;60.31;101208.91;7401506;19;1559;-49
2023/05/01 07:44:16;;;;;;;;;;;;;;;20.11;60.30;101204.25;7400890;19;1851;-49
2023/05/01 07:46:44;;;;;;;;;;;;;;;20.11;60.34;101220.34;7401937;19;1613;-49
2023/05/01 07:49:12;;;;;;;;;;;;;;;19.97;60.47;101218.84;7397428;19;1574;-49
2023/05/01 07:51:44;;;;;;;;;;;;;;;19.94;60.42;101234.41;7400469;19;1590;-49
2023/05/01 07:54:14;;;;;;;;;;;;;;;20.22;59.80;101235.56;7400300;19;1287;-49
2023/05/01 07:56:43;;;;;;;;;;;;;;;20.23;59.67;101234.56;7401095;19;1607;-49
2023/05/01 07:59:11;;;;;;;;;;;;;;;20.16;59.64;101233.41;7401597;19;1508;-49
2023/05/01 08:01:40;;;;;;;;;;;;;;;20.13;59.80;101202.28;7401840;19;1190;-49
2023/05/01 08:04:08;;;;;;;;;;;;;;;20.13;58.91;101221.06;7400001;19;1838;-56
2023/05/01 08:06:36;;;;;;;;;;;;;;;20.18;58.91;101232.28;7401746;19;1534;-49
2023/05/01 08:09:07;;;;;;;;;;;;;;;20.09;58.34;101230.38;7399920;19;1183;-49
2023/05/01 08:11:35;;;;;;;;;;;;;;;20.17;58.17;101241.31;7402271;19;1554;-49
2023/05/01 08:14:03;;;;;;;;;;;;;;;19.98;58.06;101233.16;7401380;19;1847;-49
2023/05/01 08:16:32;;;;;;;;;;;;;;;19.90;58.27;101251.75;7400166;19;1447;-49
2023/05/01 08:19:00;;;;;;;;;;;;;;;20.06;58.30;101250.28;7400924;19;1172;-49
2023/05/01 08:21:28;;;;;;;;;;;;;;;20.04;57.92;101246.03;7399292;19;1519;-49
2023/05/01 08:23:57;;;;;;;;;;;;;;;20.20;57.44;101235.69;7399763;19;1373;-49
2023/05/01 08:26:28;;;;;;;;;;;;;;;20.12;57.38;101258.81;7397841;19;1871;-49
2023/05/01 08:28:56;;;;;;;;;;;;;;;20.14;57.28;101246.97;7400506;19;1371;-49
2023/05/01 08:31:25;;;;;;;;;;;;;;;20.13;56.96;101249.78;7397615;19;1464;-49
2023/05/01 08:33:53;;;;;;;;;;;;;;;20.14;56.60;101246.97;7400369;19;1285;-49
2023/05/01 08:36:21;;;;;;;;;;;;;;;20.16;56.75;101245.00;7400458;19;1691;-49
2023/05/01 08:38:49;;;;;;;;;;;;;;;20.10;56.64;101247.38;7401160;19;1560;-48
2023/05/01 08:41:18;;;;;;;;;;;;;;;20.18;56.46;101243.03;7399322;19;1448;-49
2023/05/01 08:43:49;;;;;;;;;;;;;;;20.08;56.09;101242.13;7400942;19;1373;-49
2023/05/01 08:46:21;;;;;;;;;;;;;;;20.05;56.12;101250.41;7398952;19;1853;-49
2023/05/01 08:48:50;;;;;;;;;;;;;;;19.95;55.02;101244.13;7401102;19;1489;-49
2023/05/01 08:51:21;;;;;;;;;;;;;;;19.88;55.68;101251.88;7401364;19;1543;-49
2023/05/01 08:53:51;;;;;;;;;;;;;;;19.83;55.85;101244.19;7399967;19;1161;-49
2023/05/01 08:56:20;;;;;;;;;;;;;;;19.84;55.80;101253.94;7399715;19;1845;-49
2023/05/01 08:58:52;;;;;;;;;;;;;;;19.75;56.26;101240.44;7399656;19;1537;-49
2023/05/01 09:01:22;;;;;;;;;;;;;;;19.66;56.17;101231.31;7398550;19;1484;-49
2023/05/01 09:03:51;;;;;;;;;;;;;;;19.70;55.94;101234.59;7400192;19;1226;-49
2023/05/01 09:06:20;;;;;;;;;;;;;;;19.65;56.01;101240.34;7397938;19;1874;-49
2023/05/01 09:08:48;;;;;;;;;;;;;;;19.82;56.35;101247.00;7398456;19;1634;-49
2023/05/01 09:11:18;;;;;;;;;;;;;;;20.05;55.76;101245.06;7399511;19;1664;-48
2023/05/01 09:13:47;;;;;;;;;;;;;;;19.93;55.60;101238.88;7399604;19;1389;-49
2023/05/01 09:16:18;;;;;;;;;;;;;;;20.05;55.12;101231.63;7398835;19;1549;-48
2023/05/01 09:18:46;;;;;;;;;;;;;;;20.04;55.10;101229.94;7399262;19;1579;-48
2023/05/01 09:21:15;;;;;;;;;;;;;;;19.99;55.22;101245.56;7396079;19;1603;-48
2023/05/01 09:23:43;;;;;;;;;;;;;;;19.91;55.31;101234.63;7398013;19;1389;-48
2023/05/01 09:26:11;;;;;;;;;;;;;;;19.81;56.06;101246.13;7396353;19;1846;-48
2023/05/01 09:28:43;;;;;;;;;;;;;;;19.64;56.15;101233.28;7398210;19;1210;-47
2023/05/01 09:31:28;;;;;;;;;;;;;;;19.61;56.17;101247.78;7398587;19;1904;-48
2023/05/01 09:33:57;;;;;;;;;;;;;;;19.65;56.43;101237.66;7397376;19;1465;-49
2023/05/01 09:36:26;;;;;;;;;;;;;;;19.63;56.03;101235.09;7399264;19;1282;-49
2023/05/01 09:38:54;;;;;;;;;;;;;;;19.71;55.87;101245.22;7395851;19;1694;-48
2023/05/01 09:41:22;;;;;;;;;;;;;;;19.70;56.00;101238.13;7398476;19;1238;-48
2023/05/01 09:43:51;;;;;;;;;;;;;;;19.82;56.06;101253.22;7397133;19;1401;-48
2023/05/01 09:46:19;;;;;;;;;;;;;;;19.80;55.55;101241.78;7396985;19;1861;-48
2023/05/01 09:48:57;;;;;;;;;;;;;;;19.72;55.30;101252.31;7398750;19;1540;-48
2023/05/01 09:51:28;;;;;;;;;;;;;;;19.79;55.35;101248.09;7397056;19;1219;-49
2023/05/01 09:53:57;;;;;;;;;;;;;;;19.72;55.40;101241.56;7394841;19;1144;-48
2023/05/01 09:56:27;;;;;;;;;;;;;;;19.81;54.96;101239.94;7398386;19;1397;-48
2023/05/01 09:58:56;;;;;;;;;;;;;;;19.79;55.47;101229.31;7397364;19;1188;-48
2023/05/01 10:01:39;;;;;;;;;;;;;;;19.80;53.90;101232.88;7397722;19;1083;-48
2023/05/01 10:04:10;;;;;;;;;;;;;;;19.67;54.62;101233.00;7396804;19;1416;-48
2023/05/01 10:06:39;;;;;;;;;;;;;;;19.74;53.23;101242.28;7390680;19;1852;-48
2023/05/01 10:09:15;;;;;;;;;;;;;;;19.80;52.80;101224.81;7392716;19;1516;-47
2023/05/01 10:11:50;;;;;;;;;;;;;;;19.82;53.88;101236.28;7396727;19;1180;-48
2023/05/01 10:14:19;;;;;;;;;;;;;;;19.86;54.77;101222.47;7397203;19;1556;-48
2023/05/01 10:16:48;;;;;;;;;;;;;;;19.97;55.16;101215.31;7396204;19;1622;-47
2023/05/01 10:19:19;;;;;;;;;;;;;;;19.93;55.04;101230.00;7396524;19;1576;-49
2023/05/01 10:21:47;;;;;;;;;;;;;;;19.96;55.14;101227.91;7396937;19;1175;-48
2023/05/01 10:24:15;;;;;;;;;;;;;;;20.13;55.08;101229.13;7395884;19;1497;-48
2023/05/01 10:26:44;;;;;;;;;;;;;;;19.96;55.54;101224.38;7390932;19;1870;-47
2023/05/01 10:29:13;;;;;;;;;;;;;;;19.95;55.84;101225.34;7392320;19;1464;-47
2023/05/01 10:31:42;;;;;;;;;;;;;;;19.88;56.23;101219.66;7393083;19;1132;-48
2023/05/01 10:34:10;;;;;;;;;;;;;;;19.95;56.27;101231.56;7391189;19;1850;-48
2023/05/01 10:36:44;;;;;;;;;;;;;;;19.86;56.55;101219.78;7391256;19;1179;-48
2023/05/01 10:39:27;;;;;;;;;;;;;;;19.88;56.94;101234.91;7391879;19;1576;-47
2023/05/01 10:42:05;;;;;;;;;;;;;;;19.87;56.88;101212.56;7394914;19;1532;-47
2023/05/01 10:44:34;;;;;;;;;;;;;;;19.86;57.13;101232.34;7395603;19;1571;-48
2023/05/01 10:47:22;;;;;;;;;;;;;;;20.03;56.43;101228.22;7394268;19;1876;-48
2023/05/01 10:50:06;;;;;;;;;;;;;;;19.91;56.95;101223.91;7394739;19;2383;-48
2023/05/01 10:53:04;;;;;;;;;;;;;;;19.88;57.05;101208.06;7395511;19;1567;-48
2023/05/01 10:55:36;;;;;;;;;;;;;;;19.94;57.48;101212.91;7394800;19;1876;-48
2023/05/01 10:58:04;;;;;;;;;;;;;;;20.08;56.91;101220.63;7395398;19;1266;-48
2023/05/01 11:00:33;;;;;;;;;;;;;;;20.06;56.62;101212.72;7395051;19;1703;-48
2023/05/01 11:03:22;;;;;;;;;;;;;;;19.97;57.02;101218.00;7395662;19;1237;-48
2023/05/01 11:06:08;;;;;;;;;;;;;;;19.89;57.55;101193.66;7393691;19;1864;-48
2023/05/01 11:08:40;;;;;;;;;;;;;;;19.84;57.77;101219.06;7394457;19;1202;-48
2023/05/01 11:11:23;;;;;;;;;;;;;;;19.90;57.44;101211.47;7395458;19;1869;-48
2023/05/01 11:13:58;;;;;;;;;;;;;;;19.85;58.04;101226.13;7394765;19;1654;-48
2023/05/01 11:16:42;;;;;;;;;;;;;;;19.86;58.11;101211.72;7394683;19;1163;-48
2023/05/01 11:19:11;;;;;;;;;;;;;;;19.88;57.79;101218.81;7395078;19;1630;-48
2023/05/01 11:21:40;;;;;;;;;;;;;;;19.81;58.29;101230.03;7394011;19;1204;-48
2023/05/01 11:24:11;;;;;;;;;;;;;;;19.84;58.32;101224.44;7394325;19;1554;-48
2023/05/01 11:26:41;;;;;;;;;;;;;;;19.82;58.63;101212.13;7393156;19;1848;-49
2023/05/01 11:29:10;;;;;;;;;;;;;;;19.80;58.70;101214.09;7394663;19;1567;-48
2023/05/01 11:31:38;;;;;;;;;;;;;;;19.89;58.35;101213.28;7395790;19;1111;-49
2023/05/01 11:34:07;;;;;;;;;;;;;;;19.98;58.05;101209.84;7394558;19;1614;-48
2023/05/01 11:36:49;;;;;;;;;;;;;;;19.90;58.40;101211.47;7393951;19;1196;-49
2023/05/01 11:39:21;;;;;;;;;;;;;;;19.83;58.42;101208.44;7390994;19;1617;-48
2023/05/01 11:41:49;;;;;;;;;;;;;;;19.88;58.62;101195.50;7395031;19;1322;-49
2023/05/01 11:44:19;;;;;;;;;;;;;;;19.78;58.69;101192.75;7394386;19;1493;-48
2023/05/01 11:46:47;;;;;;;;;;;;;;;19.78;59.25;101208.84;7392971;19;1845;-48
2023/05/01 11:49:16;;;;;;;;;;;;;;;19.80;58.97;101212.25;7394011;19;1472;-48
2023/05/01 11:51:44;;;;;;;;;;;;;;;19.93;58.45;101212.03;7393175;19;1484;-48
2023/05/01 11:54:13;;;;;;;;;;;;;;;19.84;58.80;101186.00;7393992;19;1615;-48
2023/05/01 11:56:44;;;;;;;;;;;;;;;19.81;59.14;101195.16;7393793;19;1794;-48
2023/05/01 11:59:14;;;;;;;;;;;;;;;19.78;59.36;101187.38;7391784;19;1607;-48
2023/05/01 12:01:43;;;;;;;;;;;;;;;19.87;59.34;101185.72;7392328;19;1428;-47
2023/05/01 12:04:12;;;;;;;;;;;;;;;20.01;59.32;101187.22;7399428;19;1472;-45
2023/05/01 12:06:43;;;;;;;;;;;;;;;20.02;59.68;101172.84;7399251;19;1852;-48
2023/05/01 12:09:11;;;;;;;;;;;;;;;20.09;59.26;101183.91;7393769;19;1495;-48
2023/05/01 12:11:41;;;;;;;;;;;;;;;20.25;58.84;101185.13;7398506;19;1539;-47
2023/05/01 12:14:12;;;;;;;;;;;;;;;20.05;58.67;101183.31;7400888;19;1253;-47
2023/05/01 12:16:41;;;;;;;;;;;;;;;20.04;57.74;101186.97;7397831;19;1528;-47
2023/05/01 12:19:10;;;;;;;;;;;;;;;19.89;57.81;101172.19;6867537;19;10000440;-48
2023/05/01 12:21:39;;;;;;;;;;;;;;;19.75;51.62;101182.25;7388279;19;1474;-48
2023/05/01 12:24:11;;;;;;;;;;;;;;;19.70;46.46;101179.09;7389458;19;1530;-48
2023/05/01 12:26:39;;;;;;;;;;;;;;;19.52;48.86;101159.16;7386900;19;1850;-48
2023/05/01 12:29:08;;;;;;;;;;;;;;;19.55;43.80;101175.03;7391817;19;1602;-48
2023/05/01 12:31:47;;;;;;;;;;;;;;;19.56;43.43;101176.75;7393977;19;1615;-48
2023/05/01 12:34:15;;;;;;;;;;;;;;;19.61;41.51;101179.88;7393983;19;1601;-48
2023/05/01 12:36:44;;;;;;;;;;;;;;;19.58;42.37;101164.03;7391414;19;1139;-48
2023/05/01 12:39:13;;;;;;;;;;;;;;;19.58;42.71;101174.78;7393001;19;1575;-48
2023/05/01 12:41:43;;;;;;;;;;;;;;;19.54;46.58;101158.09;7392511;19;1485;-48
2023/05/01 12:44:21;;;;;;;;;;;;;;;19.51;44.64;101162.84;7392989;19;1594;-48
2023/05/01 12:46:57;;;;;;;;;;;;;;;19.47;44.53;101162.25;7392282;19;1865;-48
2023/05/01 12:49:26;;;;;;;;;;;;;;;19.57;43.21;101170.38;7391873;19;1376;-48
2023/05/01 12:51:56;;;;;;;;;;;;;;;19.59;42.29;101160.38;7391795;19;1476;-48
2023/05/01 12:54:25;;;;;;;;;;;;;;;19.57;43.11;101152.44;7389427;19;1594;-48
2023/05/01 12:56:54;;;;;;;;;;;;;;;19.60;43.49;101173.66;7392260;19;1469;-48
2023/05/01 12:59:23;;;;;;;;;;;;;;;19.64;41.77;101155.47;7391384;19;1844;-48